Kerrville, TX (78029)

1:03 PM CST on December 05, 2016 (GMT -0600)
Mountain Home, TX | | Change Station

Elev 2165 ft 30.20 °N, 99.30 °W | Updated 3 minutes ago

Overcast
Overcast
47.9 °F
Feels Like 48 °F
N
2.0
Wind Variable Wind from NW
Gusts 4.0 mph

Today
High -- | Low -- °F
--% Chance of Precip.
Yesterday
High -- | Low -- °F
Precip. -- in
Pressure 29.81 in
Visibility 10.0 miles
Clouds Overcast 700 ft
Windchill 48 °F
Dew Point 45 °F
Humidity 89%
Rainfall 0.49 in
Snow Depth Not available.
7:19 AM 5:36 PM
Waxing Crescent, 34% visible
METAR KERV 051855Z AUTO 00000KT 10SM OVC007 11/10 A2981 RMK AO2 T01060095
Pressure 29.81 in
Visibility 10.0 miles
Clouds Overcast 700 ft
Windchill 48 °F
Dew Point 45 °F
Humidity 89%
Rainfall 0.49 in
Snow Depth Not available.
7:19 AM 5:36 PM
Waxing Crescent, 34% visible
METAR KERV 051855Z AUTO 00000KT 10SM OVC007 11/10 A2981 RMK AO2 T01060095

10-Day Weather Forecast

Almanac

Astronomy

Dec. 05, 2016 Rise Set
Actual Time
Civil Twilight
Nautical Twilight
Astronomical Twilight
Moon
Length of Visible Light
Length of Day
Tomorrow will be .
, % of the Moon is Illuminated

Today's Extremes

State Highs State Lows

Community

WunderPhotos

Upload Photos

1,955,852 photos uploaded!

WunderBlog® & News

Nearby

Air Quality

  Air Quality AQ Index Pollutant
Not available.

Snow Depth

Station Depth Elevation

Earthquake Activity

City Distance Mag. Time & Date
Minimum magnitude displayed is 2.5.

Coastal Water Temperatures

Place Temperature

Stations

Nearby Weather Stations

Station Location Temp. Windchill Dew Point Humidity Wind Precip. Elev Updated Type
                   

Watches & Warnings

There are currently no watches in effect.